Time;durP1;ratioP1;P1;durP2;ratioP2;P2;SDS_P1;SDS_P2;PMS_P1;PMS_P2;Temp;Humidity;BMP_temperature;BMP_pressure;BME280_temperature;BME280_humidity;BME280_pressure;Samples;Min_cycle;Max_cycle;Signal;HPM_P1;HPM_P2
2024/01/10 00:01:34;;;;;;;12.50;6.25;;;-1.80;99.90;;;;;;5039535;28;20049;-70
2024/01/10 00:04:00;;;;;;;13.05;6.15;;;-1.70;99.90;;;;;;5038611;28;20025;-70
2024/01/10 00:06:26;;;;;;;13.88;6.95;;;-1.70;99.90;;;;;;5038050;28;20495;-70
2024/01/10 00:08:51;;;;;;;12.80;6.72;;;-1.70;99.90;;;;;;5034663;28;20037;-70
2024/01/10 00:11:17;;;;;;;13.77;7.43;;;-1.60;99.90;;;;;;5040622;28;20398;-70
2024/01/10 00:13:43;;;;;;;14.65;6.57;;;-1.60;99.90;;;;;;5034576;28;20045;-70
2024/01/10 00:16:11;;;;;;;15.57;7.38;;;-1.70;99.90;;;;;;5037087;28;20108;-70
2024/01/10 00:18:37;;;;;;;15.38;7.35;;;-1.60;99.90;;;;;;5034081;28;20033;-70
2024/01/10 00:21:03;;;;;;;14.20;7.05;;;-1.60;99.90;;;;;;5034518;28;20032;-70
2024/01/10 00:23:29;;;;;;;18.38;7.38;;;-1.60;99.90;;;;;;5036077;28;20115;-70
2024/01/10 00:25:54;;;;;;;14.60;7.10;;;-1.60;99.90;;;;;;5038474;28;20024;-70
2024/01/10 00:28:20;;;;;;;14.07;6.70;;;-1.60;99.90;;;;;;5040521;28;20013;-70
2024/01/10 00:30:48;;;;;;;15.02;6.90;;;-1.60;99.90;;;;;;5033060;28;20029;-70
2024/01/10 00:33:14;;;;;;;14.00;7.85;;;-1.60;99.90;;;;;;5038162;28;20013;-70
2024/01/10 00:35:39;;;;;;;16.63;8.73;;;-1.60;99.90;;;;;;5034968;28;20025;-70
2024/01/10 00:38:05;;;;;;;14.65;7.38;;;-1.60;99.90;;;;;;5039432;28;20398;-70
2024/01/10 00:40:31;;;;;;;16.65;8.75;;;-1.60;99.90;;;;;;5042908;28;20027;-70
2024/01/10 00:42:57;;;;;;;14.68;7.72;;;-1.60;99.90;;;;;;5034476;28;20471;-70
2024/01/10 00:45:22;;;;;;;13.45;7.45;;;-1.60;99.90;;;;;;5039470;28;20029;-70
2024/01/10 00:47:49;;;;;;;14.73;7.03;;;-1.60;99.90;;;;;;5035879;28;20021;-69
2024/01/10 00:50:15;;;;;;;13.43;8.23;;;-1.70;99.90;;;;;;5035284;28;20029;-70
2024/01/10 00:52:40;;;;;;;14.05;7.82;;;-1.70;99.90;;;;;;5039700;28;20036;-70
2024/01/10 00:55:06;;;;;;;17.35;7.90;;;-1.70;99.90;;;;;;5038248;28;20025;-71
2024/01/10 00:57:32;;;;;;;17.83;7.45;;;-1.70;99.90;;;;;;5043687;28;20032;-70
2024/01/10 00:59:58;;;;;;;14.70;7.20;;;-1.80;99.90;;;;;;5040993;28;20017;-70
2024/01/10 01:02:24;;;;;;;12.75;6.32;;;-1.80;99.90;;;;;;5039503;28;20113;-70
2024/01/10 01:04:49;;;;;;;13.48;7.15;;;-1.80;99.90;;;;;;5040967;28;20102;-70
2024/01/10 01:07:15;;;;;;;18.08;8.13;;;-1.90;99.90;;;;;;5036963;28;20033;-71
2024/01/10 01:09:41;;;;;;;14.10;7.00;;;-1.90;99.90;;;;;;5038772;28;20049;-70
2024/01/10 01:12:06;;;;;;;14.18;7.07;;;-1.90;99.90;;;;;;5043343;28;20064;-71
2024/01/10 01:14:32;;;;;;;16.65;6.95;;;-1.90;99.90;;;;;;5040181;28;20506;-70
2024/01/10 01:16:58;;;;;;;12.30;6.30;;;-2.00;99.90;;;;;;5036522;28;20124;-70
2024/01/10 01:19:24;;;;;;;13.30;6.60;;;-2.00;99.90;;;;;;5036389;28;20028;-70
2024/01/10 01:21:49;;;;;;;13.45;6.50;;;-2.00;99.90;;;;;;5045516;28;20124;-70
2024/01/10 01:24:15;;;;;;;16.85;7.00;;;-2.00;99.90;;;;;;5040069;28;20052;-70
2024/01/10 01:26:41;;;;;;;12.43;6.07;;;-2.00;99.90;;;;;;5044775;28;20547;-71
2024/01/10 01:29:08;;;;;;;17.48;7.47;;;-2.00;99.90;;;;;;5044125;28;20035;-70
2024/01/10 01:31:34;;;;;;;15.52;7.45;;;-2.10;99.90;;;;;;5046061;28;20028;-71
2024/01/10 01:34:00;;;;;;;16.20;7.68;;;-2.10;99.90;;;;;;5042876;28;20076;-70
2024/01/10 01:36:25;;;;;;;13.30;6.78;;;-2.10;99.90;;;;;;5049778;28;20104;-71
2024/01/10 01:38:51;;;;;;;13.35;7.25;;;-2.10;99.90;;;;;;5041938;28;20033;-71
2024/01/10 01:41:17;;;;;;;14.38;7.13;;;-2.10;99.90;;;;;;5040660;28;20470;-71
2024/01/10 01:43:43;;;;;;;15.68;7.07;;;-2.10;99.90;;;;;;5041195;28;20029;-70
2024/01/10 01:46:10;;;;;;;14.63;6.60;;;-2.10;99.90;;;;;;5045503;28;20402;-71
2024/01/10 01:48:36;;;;;;;19.02;7.53;;;-2.10;99.90;;;;;;5040601;28;20028;-70
2024/01/10 01:51:05;;;;;;;16.25;6.43;;;-2.10;99.90;;;;;;5043747;28;20104;-71
2024/01/10 01:53:32;;;;;;;13.38;6.75;;;-2.10;99.90;;;;;;5048523;28;20366;-70
2024/01/10 01:56:00;;;;;;;13.38;6.75;;;-2.10;99.90;;;;;;5041519;28;20396;-71
2024/01/10 01:58:26;;;;;;;13.70;6.15;;;-2.10;99.90;;;;;;5048262;28;20075;-70
2024/01/10 02:00:52;;;;;;;12.82;6.07;;;-2.10;99.90;;;;;;5048377;28;20025;-71
2024/01/10 02:03:17;;;;;;;14.75;7.47;;;-2.10;99.90;;;;;;5051026;28;20501;-70
2024/01/10 02:05:43;;;;;;;14.20;7.22;;;-2.10;99.90;;;;;;5048914;28;20029;-71
2024/01/10 02:08:09;;;;;;;16.60;7.53;;;-2.10;99.90;;;;;;5044184;28;20487;-71
2024/01/10 02:10:35;;;;;;;16.27;7.10;;;-2.20;99.90;;;;;;5044422;28;20029;-71
2024/01/10 02:13:01;;;;;;;13.35;6.50;;;-2.10;99.90;;;;;;5045271;28;20022;-70
2024/01/10 02:15:27;;;;;;;16.15;7.63;;;-2.20;99.90;;;;;;5046029;28;20383;-70
2024/01/10 02:17:53;;;;;;;14.13;7.35;;;-2.20;99.90;;;;;;5043472;28;20470;-70
2024/01/10 02:20:20;;;;;;;13.20;6.07;;;-2.10;99.90;;;;;;5044200;28;20033;-70
2024/01/10 02:22:46;;;;;;;14.07;6.53;;;-2.20;99.90;;;;;;5039727;28;20044;-70
2024/01/10 02:25:13;;;;;;;16.27;6.55;;;-2.10;99.90;;;;;;5041693;28;20083;-70
2024/01/10 02:27:40;;;;;;;14.13;6.28;;;-2.10;99.90;;;;;;5053033;28;20043;-70
2024/01/10 02:30:08;;;;;;;12.77;5.85;;;-2.10;99.90;;;;;;5040297;28;20032;-71
2024/01/10 02:32:34;;;;;;;12.90;6.25;;;-2.20;99.90;;;;;;5044932;28;20032;-70
2024/01/10 02:35:00;;;;;;;17.40;5.80;;;-2.20;99.90;;;;;;5041660;28;20025;-70
2024/01/10 02:37:25;;;;;;;15.05;6.18;;;-2.20;99.90;;;;;;5047880;28;20044;-70
2024/01/10 02:39:51;;;;;;;13.70;6.22;;;-2.20;99.90;;;;;;5044488;28;20449;-70
2024/01/10 02:42:17;;;;;;;17.23;6.95;;;-2.20;99.90;;;;;;5043627;28;20087;-70
2024/01/10 02:44:43;;;;;;;13.63;6.90;;;-2.10;99.90;;;;;;5044977;28;20117;-70
2024/01/10 02:47:10;;;;;;;14.27;6.93;;;-2.10;99.90;;;;;;5041208;28;20104;-70
2024/01/10 02:49:35;;;;;;;11.77;6.18;;;-2.10;99.90;;;;;;5040183;28;20025;-70
2024/01/10 02:52:01;;;;;;;12.88;6.40;;;-2.20;99.90;;;;;;5042894;28;20032;-71
2024/01/10 02:54:27;;;;;;;16.73;6.75;;;-2.20;99.90;;;;;;5041944;28;20445;-70
2024/01/10 02:56:52;;;;;;;16.15;7.05;;;-2.20;99.90;;;;;;5047059;28;20088;-70
2024/01/10 02:59:18;;;;;;;15.80;6.15;;;-2.20;99.90;;;;;;5040437;28;20402;-71
2024/01/10 03:01:44;;;;;;;13.73;5.95;;;-2.30;99.90;;;;;;5045672;28;20065;-70
2024/01/10 03:04:10;;;;;;;12.35;7.10;;;-2.20;99.90;;;;;;5042651;28;20525;-70
2024/01/10 03:06:35;;;;;;;14.07;6.47;;;-2.30;99.90;;;;;;5046262;28;20071;-70
2024/01/10 03:09:02;;;;;;;15.88;6.80;;;-2.30;99.90;;;;;;5040831;28;20028;-70
2024/01/10 03:11:28;;;;;;;13.93;6.85;;;-2.40;99.90;;;;;;5044125;28;20020;-70
2024/01/10 03:14:09;;;;;;;12.05;6.15;;;-2.30;99.90;;;;;;5044831;28;20025;-70
2024/01/10 03:16:35;;;;;;;13.77;6.50;;;-2.30;99.90;;;;;;5045447;28;20033;-70
2024/01/10 03:19:01;;;;;;;13.25;6.18;;;-2.30;99.90;;;;;;5045140;28;20038;-70
2024/01/10 03:21:26;;;;;;;13.13;5.88;;;-2.30;99.90;;;;;;5047628;28;20037;-70
2024/01/10 03:23:59;;;;;;;12.65;6.00;;;-2.30;99.90;;;;;;5042496;28;20578;-71
2024/01/10 03:26:25;;;;;;;11.05;6.45;;;-2.40;99.90;;;;;;5046144;28;20017;-70
2024/01/10 03:28:52;;;;;;;11.85;6.72;;;-2.30;99.90;;;;;;5043438;28;20034;-70
2024/01/10 03:31:17;;;;;;;12.80;6.60;;;-2.40;99.90;;;;;;5040065;28;20026;-70
2024/01/10 03:33:43;;;;;;;14.07;6.65;;;-2.40;99.90;;;;;;5041783;28;20087;-71
2024/01/10 03:36:15;;;;;;;14.00;7.00;;;-2.30;99.90;;;;;;5044908;28;20441;-70
2024/01/10 03:38:41;;;;;;;11.98;6.65;;;-2.30;99.90;;;;;;5053147;28;20073;-70
2024/01/10 03:41:07;;;;;;;11.43;6.43;;;-2.40;99.90;;;;;;5049724;28;20052;-70
2024/01/10 03:43:32;;;;;;;15.25;7.28;;;-2.40;99.90;;;;;;5040977;28;20025;-71
2024/01/10 03:45:58;;;;;;;11.07;5.97;;;-2.40;99.90;;;;;;5045280;28;20037;-70
2024/01/10 03:48:24;;;;;;;17.20;6.32;;;-2.40;99.90;;;;;;5041266;28;20394;-70
2024/01/10 03:50:50;;;;;;;13.77;5.78;;;-2.40;99.90;;;;;;5043491;28;20057;-70
2024/01/10 03:53:16;;;;;;;13.85;5.53;;;-2.50;99.90;;;;;;5053508;28;20104;-70
2024/01/10 03:55:41;;;;;;;13.25;5.97;;;-2.40;99.90;;;;;;5043377;28;20021;-70
2024/01/10 03:58:07;;;;;;;13.52;5.85;;;-2.50;99.90;;;;;;5043431;28;20916;-70
2024/01/10 04:00:33;;;;;;;11.10;5.30;;;-2.50;99.90;;;;;;5046628;28;20025;-70
2024/01/10 04:02:59;;;;;;;12.27;5.70;;;-2.50;99.90;;;;;;5041318;28;20485;-70
2024/01/10 04:05:25;;;;;;;10.38;5.40;;;-2.50;99.90;;;;;;5046069;28;20039;-70
2024/01/10 04:07:51;;;;;;;12.15;5.82;;;-2.60;99.90;;;;;;5042210;28;20493;-71
2024/01/10 04:10:18;;;;;;;15.98;6.65;;;-2.60;99.90;;;;;;5039985;28;20043;-70
2024/01/10 04:12:46;;;;;;;12.80;5.78;;;-2.50;99.90;;;;;;5039748;28;20156;-70
2024/01/10 04:15:12;;;;;;;11.50;6.07;;;-2.50;99.90;;;;;;5040561;28;20029;-70
2024/01/10 04:17:38;;;;;;;9.98;5.72;;;-2.60;99.90;;;;;;5045887;28;20037;-70
2024/01/10 04:20:05;;;;;;;10.98;5.78;;;-2.60;99.90;;;;;;5039725;28;20060;-70
2024/01/10 04:22:31;;;;;;;12.75;6.10;;;-2.60;99.90;;;;;;5045071;28;20025;-70
2024/01/10 04:25:01;;;;;;;10.30;5.35;;;-2.60;99.90;;;;;;5040918;28;20083;-71
2024/01/10 04:27:27;;;;;;;12.38;5.90;;;-2.60;99.90;;;;;;5043834;28;20474;-70
2024/01/10 04:29:53;;;;;;;12.50;6.20;;;-2.60;99.90;;;;;;5040010;28;20021;-70
2024/01/10 04:32:19;;;;;;;13.65;6.20;;;-2.60;99.90;;;;;;5042230;28;20432;-70
2024/01/10 04:34:45;;;;;;;12.98;6.30;;;-2.60;99.90;;;;;;5040919;28;20041;-70
2024/01/10 04:37:11;;;;;;;13.77;6.07;;;-2.60;99.90;;;;;;5046231;28;20072;-71
2024/01/10 04:39:40;;;;;;;9.88;5.63;;;-2.70;99.90;;;;;;5037934;28;20040;-70
2024/01/10 04:42:06;;;;;;;14.88;6.05;;;-2.70;99.90;;;;;;5042541;28;20039;-71
2024/01/10 04:44:32;;;;;;;11.00;5.90;;;-2.70;99.90;;;;;;5047519;28;20377;-71
2024/01/10 04:46:57;;;;;;;10.77;5.63;;;-2.70;99.90;;;;;;5048472;28;20490;-71
2024/01/10 04:49:23;;;;;;;10.73;5.57;;;-2.70;99.90;;;;;;5040158;28;20029;-70
2024/01/10 04:51:50;;;;;;;11.32;5.75;;;-2.70;99.90;;;;;;5058153;28;20473;-70
2024/01/10 04:54:15;;;;;;;12.25;6.47;;;-2.70;99.90;;;;;;5038995;28;20509;-71
2024/01/10 04:56:41;;;;;;;14.88;6.30;;;-2.70;99.90;;;;;;5043736;28;20033;-70
2024/01/10 04:59:07;;;;;;;12.30;6.03;;;-2.70;99.90;;;;;;5040999;28;20115;-70
2024/01/10 05:01:32;;;;;;;10.48;5.88;;;-2.80;99.90;;;;;;5043971;28;20572;-70
2024/01/10 05:03:58;;;;;;;11.68;6.22;;;-2.80;99.90;;;;;;5051997;28;20024;-71
2024/01/10 05:06:24;;;;;;;13.48;5.90;;;-2.80;99.90;;;;;;5043916;28;20096;-70
2024/01/10 05:08:50;;;;;;;10.82;5.55;;;-2.80;99.90;;;;;;5046378;28;20475;-71
2024/01/10 05:11:16;;;;;;;14.20;6.30;;;-2.80;99.90;;;;;;5038959;28;20371;-71
2024/01/10 05:13:45;;;;;;;12.65;5.75;;;-2.80;99.90;;;;;;5045390;28;20025;-71
2024/01/10 05:16:10;;;;;;;13.35;6.18;;;-2.80;99.90;;;;;;5045746;28;20028;-71
2024/01/10 05:18:36;;;;;;;11.25;5.80;;;-2.80;99.90;;;;;;5047203;28;20029;-70
2024/01/10 05:21:03;;;;;;;13.65;5.45;;;-2.80;99.90;;;;;;5045105;28;20096;-70
2024/01/10 05:23:29;;;;;;;13.23;5.95;;;-2.80;99.90;;;;;;5040084;28;20572;-70
2024/01/10 05:25:55;;;;;;;13.43;6.68;;;-2.80;99.90;;;;;;5045786;28;20017;-71
2024/01/10 05:28:21;;;;;;;11.93;6.20;;;-2.80;99.90;;;;;;5040614;28;20078;-70
2024/01/10 05:30:47;;;;;;;17.60;6.88;;;-2.80;99.90;;;;;;5043699;28;20032;-70
2024/01/10 05:33:12;;;;;;;14.27;6.80;;;-2.70;99.90;;;;;;5040266;28;20072;-70
2024/01/10 05:35:38;;;;;;;12.75;6.63;;;-2.80;99.90;;;;;;5043947;28;20549;-71
2024/01/10 05:38:04;;;;;;;15.63;6.85;;;-2.80;99.90;;;;;;5044658;28;20044;-71
2024/01/10 05:40:31;;;;;;;16.42;7.32;;;-2.90;99.90;;;;;;5039259;28;20505;-71
2024/01/10 05:42:59;;;;;;;16.92;6.60;;;-2.90;99.90;;;;;;5045384;28;20490;-71
2024/01/10 05:45:25;;;;;;;14.48;6.65;;;-2.80;99.90;;;;;;5043217;28;20033;-70
2024/01/10 05:47:52;;;;;;;14.32;5.88;;;-2.90;99.90;;;;;;5046221;28;20410;-70
2024/01/10 05:50:19;;;;;;;16.48;6.10;;;-2.90;99.90;;;;;;5043628;28;20037;-70
2024/01/10 05:52:45;;;;;;;13.07;5.88;;;-2.90;99.90;;;;;;5038580;28;20087;-70
2024/01/10 05:55:11;;;;;;;13.02;7.00;;;-2.90;99.90;;;;;;5039375;28;20051;-70
2024/01/10 05:57:37;;;;;;;11.52;5.88;;;-2.90;99.90;;;;;;5039942;28;20068;-70
2024/01/10 06:00:04;;;;;;;12.65;5.60;;;-2.90;99.90;;;;;;5039233;28;20057;-70
2024/01/10 06:02:30;;;;;;;14.25;6.07;;;-2.90;99.90;;;;;;5039232;28;20038;-70
2024/01/10 06:04:56;;;;;;;14.07;6.13;;;-2.80;99.90;;;;;;5051166;28;20026;-70
2024/01/10 06:07:22;;;;;;;15.75;6.82;;;-2.90;99.90;;;;;;5051846;28;20021;-70
2024/01/10 06:09:47;;;;;;;16.80;7.35;;;-2.80;99.90;;;;;;5051307;28;20494;-70
2024/01/10 06:12:13;;;;;;;14.25;6.55;;;-2.90;99.90;;;;;;5041404;28;20029;-70
2024/01/10 06:14:39;;;;;;;12.98;6.38;;;-2.90;99.90;;;;;;5046868;28;20052;-70
2024/01/10 06:17:06;;;;;;;14.30;6.90;;;-2.90;99.90;;;;;;5041958;28;20041;-70
2024/01/10 06:19:31;;;;;;;15.50;7.05;;;-3.00;99.90;;;;;;5046391;28;20060;-70
2024/01/10 06:21:58;;;;;;;14.18;6.45;;;-2.90;99.90;;;;;;5047043;28;20060;-70
2024/01/10 06:24:24;;;;;;;17.17;6.70;;;-2.90;99.90;;;;;;5039573;28;20029;-70
2024/01/10 06:26:50;;;;;;;11.75;6.47;;;-2.90;99.90;;;;;;5046270;28;20025;-70
2024/01/10 06:29:16;;;;;;;10.32;5.90;;;-2.90;99.90;;;;;;5043601;28;20028;-70
2024/01/10 06:31:42;;;;;;;18.92;7.22;;;-2.90;99.90;;;;;;5043493;28;20025;-70
2024/01/10 06:34:08;;;;;;;14.35;6.30;;;-3.00;99.90;;;;;;5048405;28;20082;-71
2024/01/10 06:36:34;;;;;;;16.42;6.15;;;-3.00;99.90;;;;;;5046531;28;20035;-71
2024/01/10 06:39:01;;;;;;;13.60;6.50;;;-3.00;99.90;;;;;;5053991;28;20025;-70
2024/01/10 06:41:27;;;;;;;12.20;6.65;;;-3.00;99.90;;;;;;5042052;28;20025;-70
2024/01/10 06:43:53;;;;;;;15.57;6.70;;;-2.90;99.90;;;;;;5043591;28;20028;-70
2024/01/10 06:46:19;;;;;;;14.75;6.50;;;-2.90;99.90;;;;;;5045543;28;20026;-70
2024/01/10 06:48:45;;;;;;;12.15;6.55;;;-2.90;99.90;;;;;;5042993;28;20108;-70
2024/01/10 06:51:13;;;;;;;14.07;6.57;;;-3.00;99.90;;;;;;5044910;28;20108;-70
2024/01/10 06:53:39;;;;;;;17.90;6.90;;;-3.00;99.90;;;;;;5043758;28;20056;-70
2024/01/10 06:56:06;;;;;;;18.20;7.18;;;-3.10;99.90;;;;;;5046274;28;20539;-70
2024/01/10 06:58:31;;;;;;;15.30;7.05;;;-3.00;99.90;;;;;;5043370;28;20075;-70
2024/01/10 07:00:58;;;;;;;14.60;7.18;;;-3.00;99.90;;;;;;5043028;28;20064;-70
2024/01/10 07:03:23;;;;;;;16.40;7.18;;;-3.10;99.90;;;;;;5040178;28;20055;-71
2024/01/10 07:05:49;;;;;;;16.98;7.22;;;-3.00;99.90;;;;;;5036899;28;20025;-70
2024/01/10 07:08:16;;;;;;;17.65;7.57;;;-3.00;99.90;;;;;;5042754;28;20030;-70
2024/01/10 07:10:42;;;;;;;13.98;7.57;;;-3.00;99.90;;;;;;5049310;28;20021;-69
2024/01/10 07:13:08;;;;;;;16.00;7.50;;;-3.00;99.90;;;;;;5044839;28;20036;-70
2024/01/10 07:15:33;;;;;;;15.95;7.75;;;-3.00;99.90;;;;;;5045694;28;20433;-70
2024/01/10 07:17:59;;;;;;;19.55;8.77;;;-3.00;99.90;;;;;;5043362;28;20119;-70
2024/01/10 07:20:25;;;;;;;19.50;8.25;;;-3.00;99.90;;;;;;5043688;28;20026;-70
2024/01/10 07:22:51;;;;;;;15.80;8.05;;;-2.90;99.90;;;;;;5041963;28;20381;-69
2024/01/10 07:25:17;;;;;;;15.93;8.35;;;-2.90;99.90;;;;;;5044133;28;20021;-71
2024/01/10 07:27:43;;;;;;;19.13;8.57;;;-2.90;99.90;;;;;;5046963;28;20478;-70
2024/01/10 07:30:13;;;;;;;17.17;7.95;;;-2.90;99.90;;;;;;5045637;28;20064;-70
2024/01/10 07:32:46;;;;;;;17.17;8.18;;;-3.00;99.90;;;;;;5049870;28;20055;-70
2024/01/10 07:35:21;;;;;;;16.73;7.75;;;-3.00;99.90;;;;;;5042975;28;20034;-69
2024/01/10 07:37:47;;;;;;;17.95;7.97;;;-3.00;99.90;;;;;;5041226;28;20039;-70
2024/01/10 07:40:19;;;;;;;19.70;8.88;;;-3.00;99.90;;;;;;5044707;28;20029;-69
2024/01/10 07:42:45;;;;;;;;;;;-3.00;99.90;;;;;;5045768;28;20053;-69
2024/01/10 07:45:11;;;;;;;16.40;7.50;;;-3.00;99.90;;;;;;5039938;28;20413;-69
2024/01/10 07:47:38;;;;;;;13.90;7.22;;;-2.90;99.90;;;;;;5037861;28;20441;-70
2024/01/10 07:50:08;;;;;;;19.15;8.13;;;-2.90;99.90;;;;;;5042027;28;20399;-70
2024/01/10 07:52:34;;;;;;;14.70;8.20;;;-2.90;99.90;;;;;;5042760;28;20047;-70
2024/01/10 07:55:00;;;;;;;18.05;8.70;;;-3.00;99.90;;;;;;5042479;28;20456;-69
2024/01/10 07:57:26;;;;;;;14.65;8.35;;;-3.00;99.90;;;;;;5037749;28;20506;-69
2024/01/10 07:59:53;;;;;;;17.52;8.30;;;-3.00;99.90;;;;;;5041618;28;20028;-70
2024/01/10 08:02:19;;;;;;;21.60;9.55;;;-3.00;99.90;;;;;;5038747;28;20041;-70
2024/01/10 08:04:45;;;;;;;18.80;8.80;;;-2.90;99.90;;;;;;5042994;28;20023;-71
2024/01/10 08:07:10;;;;;;;20.17;8.98;;;-2.90;99.90;;;;;;5048246;28;20035;-71
2024/01/10 08:09:36;;;;;;;22.60;8.77;;;-2.90;99.90;;;;;;5046477;28;20029;-70
2024/01/10 08:12:03;;;;;;;20.95;9.38;;;-2.90;99.90;;;;;;5038958;28;20037;-71
2024/01/10 08:14:29;;;;;;;24.88;10.20;;;-3.00;99.90;;;;;;5042688;28;20021;-70
2024/01/10 08:16:58;;;;;;;20.50;8.95;;;-2.90;99.90;;;;;;5037530;28;20444;-71
2024/01/10 08:19:25;;;;;;;20.00;9.63;;;-3.00;99.90;;;;;;5040936;28;20026;-71
2024/01/10 08:21:55;;;;;;;25.83;10.20;;;-2.90;99.90;;;;;;5047660;28;20493;-71
2024/01/10 08:24:21;;;;;;;19.10;9.13;;;-2.90;99.90;;;;;;5043353;28;20017;-71
2024/01/10 08:26:53;;;;;;;22.10;9.15;;;-2.90;99.90;;;;;;5041411;28;20513;-70
2024/01/10 08:29:21;;;;;;;16.95;9.23;;;-2.90;99.90;;;;;;5037853;28;20096;-71
2024/01/10 08:31:47;;;;;;;20.48;8.75;;;-2.90;99.90;;;;;;5028484;28;20042;-71
2024/01/10 08:34:13;;;;;;;19.05;9.73;;;-2.90;99.90;;;;;;5009647;28;20855;-71
2024/01/10 08:36:39;;;;;;;19.90;9.13;;;-2.90;99.90;;;;;;4992620;28;20147;-71
2024/01/10 08:39:06;;;;;;;20.48;9.05;;;-2.80;99.90;;;;;;4959124;28;20040;-71
2024/01/10 08:41:33;;;;;;;20.90;9.23;;;-2.80;99.90;;;;;;4941596;28;20017;-70
2024/01/10 08:43:59;;;;;;;24.05;9.80;;;-2.80;99.90;;;;;;4913074;28;20215;-70
2024/01/10 08:46:25;;;;;;;18.70;8.68;;;-2.80;99.90;;;;;;4985021;28;20033;-70
2024/01/10 08:48:51;;;;;;;25.08;8.77;;;-2.80;99.90;;;;;;5038306;28;20022;-70
2024/01/10 08:51:17;;;;;;;17.52;8.13;;;-2.90;99.90;;;;;;5042840;28;20035;-71
2024/01/10 08:53:43;;;;;;;21.23;8.70;;;-2.80;99.90;;;;;;5041949;28;20033;-71
2024/01/10 08:56:10;;;;;;;22.45;8.98;;;-2.80;99.90;;;;;;5035633;28;20035;-71
2024/01/10 08:58:36;;;;;;;17.08;9.32;;;-2.70;99.90;;;;;;5043682;28;20033;-71
2024/01/10 09:01:04;;;;;;;17.83;8.82;;;-2.70;99.90;;;;;;5047753;28;20024;-71
2024/01/10 09:03:30;;;;;;;24.80;9.38;;;-2.70;99.90;;;;;;5025482;28;20041;-70
2024/01/10 09:05:56;;;;;;;21.90;10.40;;;-2.70;99.90;;;;;;5017270;28;20033;-71
2024/01/10 09:08:22;;;;;;;21.73;9.07;;;-2.70;99.90;;;;;;5031390;28;20036;-71
2024/01/10 09:10:49;;;;;;;22.85;9.23;;;-2.70;99.90;;;;;;5037585;28;20387;-71
2024/01/10 09:13:15;;;;;;;24.55;9.77;;;-2.70;99.90;;;;;;5033529;28;20022;-71
2024/01/10 09:15:41;;;;;;;19.38;8.38;;;-2.80;99.90;;;;;;5032762;28;20033;-71
2024/01/10 09:18:06;;;;;;;22.85;9.23;;;-2.70;99.90;;;;;;5032242;28;20477;-69
2024/01/10 09:20:32;;;;;;;20.15;9.30;;;-2.60;99.90;;;;;;5033242;28;20033;-70
2024/01/10 09:23:00;;;;;;;19.42;10.20;;;-2.70;99.90;;;;;;5034115;28;20052;-71
2024/01/10 09:25:26;;;;;;;27.23;9.95;;;-2.60;99.90;;;;;;5035308;28;20029;-70
2024/01/10 09:27:51;;;;;;;21.60;9.85;;;-2.70;99.90;;;;;;5031025;28;20517;-69
2024/01/10 09:30:18;;;;;;;21.80;10.05;;;-2.60;99.90;;;;;;5031064;28;20096;-70
2024/01/10 09:32:44;;;;;;;23.08;10.75;;;-2.50;99.90;;;;;;5031501;28;20064;-69
2024/01/10 09:35:10;;;;;;;18.42;9.88;;;-2.50;99.90;;;;;;5034714;28;20100;-73
2024/01/10 09:37:36;;;;;;;22.92;10.48;;;-2.40;99.90;;;;;;5037395;28;21438;-71
2024/01/10 09:40:02;;;;;;;18.02;10.45;;;-2.30;99.90;;;;;;5037326;28;20029;-70
2024/01/10 09:42:31;;;;;;;26.65;10.77;;;-2.30;99.90;;;;;;5038613;28;20043;-69
2024/01/10 09:44:58;;;;;;;23.30;11.23;;;-2.30;99.90;;;;;;5034914;28;20482;-70
2024/01/10 09:47:25;;;;;;;26.00;11.10;;;-2.20;99.90;;;;;;5040624;28;20030;-70
2024/01/10 09:49:51;;;;;;;27.48;11.75;;;-2.00;99.90;;;;;;5034554;28;20745;-70
2024/01/10 09:52:23;;;;;;;26.45;11.30;;;-1.90;99.90;;;;;;5035506;28;20033;-71
2024/01/10 09:54:53;;;;;;;21.60;11.00;;;-1.90;99.90;;;;;;5038542;28;20056;-71
2024/01/10 09:57:20;;;;;;;28.08;10.40;;;-1.90;99.90;;;;;;5037572;28;20060;-71
2024/01/10 09:59:47;;;;;;;19.77;10.35;;;-1.90;99.90;;;;;;5034403;28;20028;-72
2024/01/10 10:02:16;;;;;;;24.55;10.80;;;-1.90;99.90;;;;;;5036962;28;20025;-72
2024/01/10 10:04:59;;;;;;;20.98;10.27;;;-1.80;99.90;;;;;;5041254;28;20049;-72
2024/01/10 10:07:25;;;;;;;26.88;10.20;;;-1.70;99.90;;;;;;5041835;28;20043;-72
2024/01/10 10:09:53;;;;;;;22.75;10.27;;;-1.70;99.90;;;;;;5040179;28;20029;-69
2024/01/10 10:12:19;;;;;;;22.88;9.80;;;-1.60;99.90;;;;;;5036167;28;20048;-70
2024/01/10 10:14:44;;;;;;;21.30;10.25;;;-1.50;99.90;;;;;;5036277;28;20022;-69
2024/01/10 10:17:17;;;;;;;21.48;9.90;;;-1.50;99.90;;;;;;5035384;28;20033;-70
2024/01/10 10:19:44;;;;;;;18.30;9.73;;;-1.40;99.90;;;;;;5033650;28;20048;-69
2024/01/10 10:22:10;;;;;;;23.88;10.93;;;-1.30;99.90;;;;;;5038092;28;20086;-69
2024/01/10 10:24:38;;;;;;;23.70;9.45;;;-1.10;99.90;;;;;;5035745;28;20029;-69
2024/01/10 10:27:12;;;;;;;19.95;9.90;;;-1.20;99.90;;;;;;5036963;28;20025;-70
2024/01/10 10:29:39;;;;;;;25.80;10.68;;;-1.10;99.90;;;;;;5036572;28;20056;-70
2024/01/10 10:32:06;;;;;;;23.67;10.32;;;-1.10;99.90;;;;;;5033938;28;20052;-70
2024/01/10 10:34:35;;;;;;;23.65;10.82;;;-1.10;99.90;;;;;;5037379;28;20028;-69
2024/01/10 10:37:02;;;;;;;25.30;10.68;;;-1.00;99.90;;;;;;5037242;28;20478;-69
2024/01/10 10:39:28;;;;;;;24.02;11.32;;;-0.90;99.90;;;;;;5035896;28;20021;-69
2024/01/10 10:41:57;;;;;;;24.45;10.60;;;-1.00;99.90;;;;;;5035236;28;20025;-71
2024/01/10 10:44:24;;;;;;;22.23;10.75;;;-0.90;99.90;;;;;;5041890;28;20436;-70
2024/01/10 10:46:56;;;;;;;21.58;10.40;;;-1.00;99.90;;;;;;5036912;28;20388;-70
2024/01/10 10:49:30;;;;;;;24.17;10.90;;;-0.90;99.90;;;;;;5034443;28;20033;-72
2024/01/10 10:51:59;;;;;;;23.33;10.85;;;-0.70;99.90;;;;;;5034630;28;20466;-71
2024/01/10 10:54:32;;;;;;;26.38;11.50;;;-0.70;99.90;;;;;;5033503;28;20028;-71
2024/01/10 10:57:00;;;;;;;23.63;10.75;;;-0.70;99.90;;;;;;5032298;28;20108;-72
2024/01/10 10:59:27;;;;;;;22.58;10.68;;;-0.70;99.90;;;;;;5040105;28;20037;-71
2024/01/10 11:01:55;;;;;;;22.38;10.43;;;-0.60;99.90;;;;;;5037052;28;20025;-70
2024/01/10 11:04:22;;;;;;;25.35;11.20;;;-0.60;99.90;;;;;;5038337;28;20359;-71
2024/01/10 11:06:47;;;;;;;26.95;12.10;;;-0.60;99.90;;;;;;5032341;28;20036;-71
2024/01/10 11:09:17;;;;;;;25.92;11.45;;;-0.50;99.90;;;;;;5036909;28;20496;-72
2024/01/10 11:12:14;;;;;;;24.75;11.95;;;-0.50;99.90;;;;;;5036381;28;20108;-71
2024/01/10 11:14:45;;;;;;;24.27;11.30;;;-0.40;99.90;;;;;;5033823;28;20436;-70
2024/01/10 11:17:34;;;;;;;22.02;11.00;;;-0.50;99.90;;;;;;5036694;28;20051;-71
2024/01/10 11:20:18;;;;;;;25.73;11.45;;;-0.50;99.90;;;;;;5034010;28;20028;-72
2024/01/10 11:22:52;;;;;;;24.20;10.82;;;-0.50;99.90;;;;;;5036250;28;20025;-73
2024/01/10 11:25:19;;;;;;;25.63;12.10;;;-0.30;99.90;;;;;;5034505;28;20017;-70
2024/01/10 11:27:55;;;;;;;24.50;10.70;;;-0.30;99.90;;;;;;5033625;28;20025;-72
2024/01/10 11:30:48;;;;;;;20.75;11.07;;;-0.30;99.90;;;;;;5038312;28;20082;-70
2024/01/10 11:33:44;;;;;;;25.80;11.27;;;-0.30;99.90;;;;;;5034351;28;20072;-70
2024/01/10 11:36:16;;;;;;;24.40;10.70;;;-0.10;99.90;;;;;;5033303;28;20039;-73
2024/01/10 11:38:53;;;;;;;22.90;10.98;;;-0.10;99.90;;;;;;5036708;28;20025;-72
2024/01/10 11:41:32;;;;;;;20.17;10.75;;;0.00;99.90;;;;;;5034059;28;20049;-72
2024/01/10 11:44:17;;;;;;;27.75;12.43;;;0.10;99.90;;;;;;5038038;28;20021;-73
2024/01/10 11:46:50;;;;;;;25.55;12.18;;;0.00;99.90;;;;;;5035387;28;20486;-73
2024/01/10 11:49:20;;;;;;;26.25;12.90;;;0.10;99.90;;;;;;5034407;28;20367;-72
2024/01/10 11:51:52;;;;;;;24.65;11.68;;;0.10;99.90;;;;;;5034800;28;20025;-73
2024/01/10 11:54:37;;;;;;;31.40;13.60;;;0.00;99.90;;;;;;5029093;28;20076;-73
2024/01/10 11:57:07;;;;;;;25.25;11.43;;;0.00;99.90;;;;;;5035440;28;20033;-73
2024/01/10 11:59:34;;;;;;;25.70;11.55;;;0.10;99.90;;;;;;5040711;28;20025;-71
2024/01/10 12:02:00;;;;;;;24.17;11.18;;;0.00;99.90;;;;;;5031698;28;20037;-73
2024/01/10 12:04:29;;;;;;;27.35;11.73;;;0.20;99.90;;;;;;5039100;28;20087;-73
2024/01/10 12:06:56;;;;;;;27.65;13.48;;;0.20;99.90;;;;;;5035775;28;20134;-73
2024/01/10 12:09:24;;;;;;;24.15;11.88;;;0.30;99.90;;;;;;5036833;28;20036;-73
2024/01/10 12:11:50;;;;;;;24.08;11.25;;;0.30;99.90;;;;;;5035969;28;20017;-73
2024/01/10 12:14:17;;;;;;;25.70;12.02;;;0.40;99.90;;;;;;5032614;28;20484;-74
2024/01/10 12:16:43;;;;;;;26.73;13.75;;;0.40;99.90;;;;;;5034769;28;20030;-73
2024/01/10 12:19:08;;;;;;;26.20;13.98;;;0.40;99.90;;;;;;5035679;28;20037;-74
2024/01/10 12:21:34;;;;;;;31.10;13.73;;;0.40;99.90;;;;;;5036831;28;20091;-71
2024/01/10 12:24:00;;;;;;;28.20;12.50;;;0.40;99.90;;;;;;5037519;28;20021;-74
2024/01/10 12:26:26;;;;;;;23.98;12.90;;;0.50;99.90;;;;;;5032422;28;20028;-70
2024/01/10 12:28:59;;;;;;;25.27;11.93;;;0.50;99.90;;;;;;5031820;28;20052;-74
2024/01/10 12:31:28;;;;;;;25.02;12.85;;;0.50;99.90;;;;;;5035726;28;20025;-74
2024/01/10 12:33:57;;;;;;;25.60;11.25;;;0.50;99.90;;;;;;5036836;28;20025;-73
2024/01/10 12:36:23;;;;;;;26.88;12.45;;;0.40;99.90;;;;;;5035170;28;20801;-75